createdAt,value
2017-12-15T00:00:37.444Z,93.50
2017-12-15T00:03:05.082Z,93.90
2017-12-15T00:05:32.655Z,93.80
2017-12-15T00:08:00.207Z,94.10
2017-12-15T00:10:27.881Z,94.10
2017-12-15T00:12:55.455Z,94.30
2017-12-15T00:15:23.026Z,94.40
2017-12-15T00:17:50.612Z,94.20
2017-12-15T00:20:18.950Z,94.00
2017-12-15T00:22:46.566Z,94.00
2017-12-15T00:25:14.171Z,93.70
2017-12-15T00:27:41.774Z,93.30
2017-12-15T00:30:10.104Z,93.40
2017-12-15T00:32:37.685Z,93.40
2017-12-15T00:35:05.299Z,93.60
2017-12-15T00:37:32.878Z,93.70
2017-12-15T00:40:00.468Z,94.00
2017-12-15T00:42:28.046Z,94.40
2017-12-15T00:44:56.407Z,94.70
2017-12-15T00:47:24.001Z,94.70
2017-12-15T00:49:51.574Z,94.60
2017-12-15T00:52:19.207Z,94.90
2017-12-15T00:54:47.590Z,94.50
2017-12-15T00:57:15.939Z,94.30
2017-12-15T00:59:43.508Z,94.30
2017-12-15T01:02:11.102Z,94.00
2017-12-15T01:04:39.436Z,93.90
2017-12-15T01:07:07.006Z,93.90
2017-12-15T01:09:34.561Z,93.90
2017-12-15T01:12:02.143Z,93.90
2017-12-15T01:14:29.723Z,94.00
2017-12-15T01:16:57.299Z,94.10
2017-12-15T01:19:24.876Z,93.70
2017-12-15T01:21:52.453Z,93.50
2017-12-15T01:24:20.022Z,92.80
2017-12-15T01:26:47.566Z,92.80
2017-12-15T01:29:15.890Z,93.30
2017-12-15T01:31:44.233Z,93.50
2017-12-15T01:34:11.810Z,93.40
2017-12-15T01:36:39.374Z,93.50
2017-12-15T01:39:07.703Z,94.20
2017-12-15T01:41:35.284Z,94.20
2017-12-15T01:44:02.875Z,93.90
2017-12-15T01:46:30.458Z,94.20
2017-12-15T01:48:58.052Z,94.20
2017-12-15T01:51:25.621Z,94.00
2017-12-15T01:53:53.414Z,94.00
2017-12-15T01:56:20.982Z,93.80
2017-12-15T01:58:48.541Z,93.70
2017-12-15T02:01:16.102Z,94.00
2017-12-15T02:03:43.683Z,93.70
2017-12-15T02:06:12.013Z,93.90
2017-12-15T02:08:39.631Z,93.90
2017-12-15T02:11:07.203Z,93.60
2017-12-15T02:13:34.807Z,93.30
2017-12-15T02:16:02.357Z,93.30
2017-12-15T02:18:29.914Z,93.50
2017-12-15T02:20:57.489Z,93.60
2017-12-15T02:23:25.076Z,93.60
2017-12-15T02:25:53.405Z,93.90
2017-12-15T02:28:20.989Z,93.90
2017-12-15T02:30:48.585Z,93.90
2017-12-15T02:33:16.922Z,94.00
2017-12-15T02:35:44.486Z,94.00
2017-12-15T02:38:12.057Z,94.10
2017-12-15T02:40:39.633Z,94.20
2017-12-15T02:43:07.978Z,93.90
2017-12-15T02:45:35.609Z,93.90
2017-12-15T02:48:03.182Z,93.90
2017-12-15T02:50:30.765Z,93.80
2017-12-15T02:52:58.333Z,94.00
2017-12-15T02:55:25.898Z,94.10
2017-12-15T02:57:53.472Z,94.20
2017-12-15T03:00:21.812Z,94.10
2017-12-15T03:02:49.369Z,94.10
2017-12-15T03:05:16.950Z,94.10
2017-12-15T03:07:44.570Z,93.90
2017-12-15T03:10:12.152Z,93.80
2017-12-15T03:12:39.729Z,93.90
2017-12-15T03:15:07.322Z,93.90
2017-12-15T03:17:34.921Z,93.90
2017-12-15T03:20:02.503Z,93.90
2017-12-15T03:22:30.076Z,93.90
2017-12-15T03:24:57.670Z,93.90
2017-12-15T03:27:26.036Z,93.90
2017-12-15T03:29:54.421Z,93.90
2017-12-15T03:32:22.018Z,93.90
2017-12-15T03:34:49.605Z,93.90
2017-12-15T03:37:17.186Z,94.00
2017-12-15T03:39:45.527Z,94.10
2017-12-15T03:42:13.111Z,94.10
2017-12-15T03:44:40.691Z,93.70
2017-12-15T03:47:08.256Z,93.70
2017-12-15T03:49:36.625Z,93.70
2017-12-15T03:52:04.189Z,93.70
2017-12-15T03:54:31.774Z,93.80
2017-12-15T03:57:00.109Z,93.20
2017-12-15T03:59:27.701Z,93.20
2017-12-15T04:01:56.027Z,93.70
2017-12-15T04:04:24.366Z,93.70
2017-12-15T04:06:52.706Z,93.60
2017-12-15T04:09:20.302Z,93.60
2017-12-15T04:11:48.665Z,93.50
2017-12-15T04:14:17.045Z,93.30
2017-12-15T04:16:45.366Z,93.10
2017-12-15T04:19:13.113Z,93.10
2017-12-15T04:21:40.655Z,93.20
2017-12-15T04:24:09.003Z,93.10
2017-12-15T04:26:36.558Z,93.10
2017-12-15T04:29:04.149Z,93.30
2017-12-15T04:31:32.467Z,93.10
2017-12-15T04:34:00.025Z,93.10
2017-12-15T04:36:27.636Z,93.00
2017-12-15T04:38:55.205Z,92.60
2017-12-15T04:41:23.558Z,92.50
2017-12-15T04:43:51.141Z,92.50
2017-12-15T04:46:18.735Z,92.20
2017-12-15T04:48:46.304Z,92.20
2017-12-15T04:51:13.865Z,92.50
2017-12-15T04:53:41.465Z,92.50
2017-12-15T04:56:09.038Z,92.40
2017-12-15T04:58:36.594Z,92.30
2017-12-15T05:01:04.155Z,92.20
2017-12-15T05:03:31.739Z,92.10
2017-12-15T05:06:00.082Z,92.10
2017-12-15T05:08:27.646Z,92.10
2017-12-15T05:10:55.211Z,92.10
2017-12-15T05:13:22.781Z,92.00
2017-12-15T05:15:50.388Z,92.00
2017-12-15T05:18:18.005Z,92.20
2017-12-15T05:20:45.546Z,92.30
2017-12-15T05:23:13.114Z,92.20
2017-12-15T05:25:40.708Z,92.20
2017-12-15T05:28:08.255Z,92.30
2017-12-15T05:30:36.628Z,92.10
2017-12-15T05:33:04.987Z,92.40
2017-12-15T05:35:32.565Z,92.10
2017-12-15T05:38:01.735Z,91.60
2017-12-15T05:40:29.328Z,91.60
2017-12-15T05:42:57.696Z,91.60
2017-12-15T05:45:25.258Z,91.30
2017-12-15T05:47:52.855Z,90.70
2017-12-15T05:50:20.445Z,90.90
2017-12-15T05:52:48.029Z,90.80
2017-12-15T05:55:15.623Z,90.30
2017-12-15T05:57:43.973Z,90.90
2017-12-15T06:00:11.559Z,90.80
2017-12-15T06:02:39.894Z,90.50
2017-12-15T06:05:07.475Z,90.40
2017-12-15T06:07:35.057Z,90.10
2017-12-15T06:10:03.385Z,90.20
2017-12-15T06:12:30.980Z,89.60
2017-12-15T06:14:58.564Z,90.30
2017-12-15T06:17:26.902Z,90.50
2017-12-15T06:19:54.499Z,90.50
2017-12-15T06:22:22.825Z,90.80
2017-12-15T06:24:50.425Z,90.80
2017-12-15T06:27:18.010Z,91.30
2017-12-15T06:29:46.336Z,91.20
2017-12-15T06:32:13.928Z,91.10
2017-12-15T06:34:41.518Z,91.10
2017-12-15T06:37:09.096Z,91.10
2017-12-15T06:39:36.697Z,90.90
2017-12-15T06:42:04.512Z,90.70
2017-12-15T06:44:32.133Z,90.50
2017-12-15T06:46:59.712Z,90.30
2017-12-15T06:49:27.289Z,90.50
2017-12-15T06:51:54.915Z,90.90
2017-12-15T06:54:22.474Z,90.70
2017-12-15T06:56:51.990Z,90.80
2017-12-15T06:59:19.577Z,90.80
2017-12-15T07:01:47.185Z,90.90
2017-12-15T07:04:14.746Z,90.90
2017-12-15T07:06:42.321Z,90.80
2017-12-15T07:09:09.910Z,91.10
2017-12-15T07:11:37.513Z,90.90
2017-12-15T07:14:05.113Z,90.90
2017-12-15T07:16:32.790Z,90.50
2017-12-15T07:19:00.398Z,90.20
2017-12-15T07:21:28.099Z,90.30
2017-12-15T07:23:56.521Z,90.50
2017-12-15T07:26:24.859Z,90.50
2017-12-15T07:28:52.483Z,90.50
2017-12-15T07:31:20.087Z,90.50
2017-12-15T07:33:47.665Z,90.90
2017-12-15T07:36:15.250Z,91.00
2017-12-15T07:38:43.600Z,91.10
2017-12-15T07:41:11.203Z,91.10
2017-12-15T07:43:38.998Z,91.30
2017-12-15T07:46:06.550Z,91.80
2017-12-15T07:48:34.128Z,91.90
2017-12-15T07:51:02.899Z,91.70
2017-12-15T07:53:30.580Z,92.00
2017-12-15T07:55:58.930Z,92.60
2017-12-15T07:58:26.479Z,92.60
2017-12-15T08:00:54.565Z,92.40
2017-12-15T08:03:22.212Z,92.70
2017-12-15T08:05:50.564Z,92.60
2017-12-15T08:08:18.136Z,92.60
2017-12-15T08:10:45.786Z,92.90
2017-12-15T08:13:13.331Z,93.10
2017-12-15T08:15:40.915Z,93.20
2017-12-15T08:18:12.550Z,93.40
2017-12-15T08:20:41.428Z,93.50
2017-12-15T08:23:08.996Z,93.70
2017-12-15T08:25:36.584Z,93.50
2017-12-15T08:28:04.213Z,93.60
2017-12-15T08:30:31.843Z,93.90
2017-12-15T08:32:59.434Z,94.00
2017-12-15T08:35:29.645Z,94.10
2017-12-15T08:37:57.219Z,94.00
2017-12-15T08:40:24.778Z,94.00
2017-12-15T08:42:55.445Z,93.70
2017-12-15T08:45:23.022Z,93.80
2017-12-15T08:47:50.632Z,93.80
2017-12-15T08:50:18.202Z,93.80
2017-12-15T08:52:45.802Z,93.80
2017-12-15T08:55:13.367Z,93.70
2017-12-15T08:57:41.007Z,93.80
2017-12-15T09:00:08.589Z,93.60
2017-12-15T09:02:36.139Z,93.90
2017-12-15T09:05:03.709Z,93.40
2017-12-15T09:07:31.282Z,93.50
2017-12-15T09:09:59.616Z,93.50
2017-12-15T09:12:27.181Z,93.50
2017-12-15T09:14:54.762Z,93.50
2017-12-15T09:17:22.311Z,93.30
2017-12-15T09:19:49.915Z,93.10
2017-12-15T09:22:18.233Z,92.80
2017-12-15T09:24:45.817Z,92.80
2017-12-15T09:27:13.377Z,92.60
2017-12-15T09:29:40.939Z,92.60
2017-12-15T09:32:08.548Z,92.80
2017-12-15T09:34:36.101Z,92.50
2017-12-15T09:37:03.679Z,92.30
2017-12-15T09:39:31.266Z,92.00
2017-12-15T09:41:58.846Z,91.60
2017-12-15T09:44:26.428Z,91.40
2017-12-15T09:46:53.993Z,91.80
2017-12-15T09:49:21.558Z,91.50
2017-12-15T09:51:49.156Z,90.70
2017-12-15T09:54:16.719Z,90.80
2017-12-15T09:56:44.303Z,89.80
2017-12-15T09:59:11.900Z,89.80
2017-12-15T10:01:39.494Z,89.70
2017-12-15T10:04:07.121Z,89.40
2017-12-15T10:06:34.678Z,87.60
2017-12-15T10:09:02.254Z,87.90
2017-12-15T10:11:29.816Z,87.40
2017-12-15T10:13:57.403Z,86.70
2017-12-15T10:16:25.020Z,84.90
2017-12-15T10:18:52.593Z,85.30
2017-12-15T10:21:20.141Z,86.40
2017-12-15T10:23:47.711Z,85.30
2017-12-15T10:26:15.288Z,85.70
2017-12-15T10:28:42.868Z,85.10
2017-12-15T10:31:10.446Z,85.00
2017-12-15T10:33:38.047Z,85.30
2017-12-15T10:36:05.608Z,84.20
2017-12-15T10:38:33.207Z,82.60
2017-12-15T10:41:00.799Z,82.40
2017-12-15T10:43:29.535Z,82.80
2017-12-15T10:45:57.120Z,82.80
2017-12-15T10:48:28.798Z,83.80
2017-12-15T10:50:56.380Z,84.90
2017-12-15T10:53:24.731Z,88.30
2017-12-15T10:55:52.302Z,88.20
2017-12-15T10:58:19.858Z,88.80
2017-12-15T11:00:47.489Z,89.80
2017-12-15T11:03:15.153Z,89.10
2017-12-15T11:05:42.768Z,89.80
2017-12-15T11:08:11.204Z,88.40
2017-12-15T11:10:38.790Z,88.40
2017-12-15T11:13:06.415Z,87.90
2017-12-15T11:15:34.006Z,89.00
2017-12-15T11:18:01.572Z,89.00
2017-12-15T11:20:29.210Z,89.50
2017-12-15T11:22:56.772Z,90.40
2017-12-15T11:25:24.333Z,90.40
2017-12-15T11:27:51.943Z,90.70
2017-12-15T11:30:19.502Z,91.20
2017-12-15T11:32:47.068Z,91.40
2017-12-15T11:35:14.644Z,91.60
2017-12-15T11:37:42.223Z,92.30
2017-12-15T11:40:09.792Z,92.40
2017-12-15T11:42:40.845Z,92.50
2017-12-15T11:45:08.402Z,93.20
2017-12-15T11:47:35.989Z,92.80
2017-12-15T11:50:03.594Z,93.00
2017-12-15T11:52:31.646Z,93.50
2017-12-15T11:54:59.978Z,93.40
2017-12-15T11:57:27.992Z,93.30
2017-12-15T11:59:55.657Z,93.50
